Time;durP1;ratioP1;P1;durP2;ratioP2;P2;SDS_P1;SDS_P2;PMS_P1;PMS_P2;Temp;Humidity;BMP_temperature;BMP_pressure;BME280_temperature;BME280_humidity;BME280_pressure;Samples;Min_cycle;Max_cycle;Signal;HPM_P1;HPM_P2
2022/01/28 00:00:59;;;;;;;24.88;5.38;;;5.80;82.40;;;;;;5048177;28;20084;-65
2022/01/28 00:03:25;;;;;;;24.30;5.28;;;5.70;82.70;;;;;;5048502;28;20049;-65
2022/01/28 00:05:51;;;;;;;17.35;3.00;;;5.70;82.60;;;;;;5046264;28;20072;-65
2022/01/28 00:08:16;;;;;;;15.63;3.05;;;5.60;82.50;;;;;;5040584;28;20099;-64
2022/01/28 00:10:42;;;;;;;17.52;3.70;;;5.60;82.40;;;;;;5045989;28;20037;-65
2022/01/28 00:15:49;;;;;;;18.80;5.13;;;5.60;82.60;;;;;;5047679;28;20056;-65
2022/01/28 00:39:36;;;;;;;28.85;4.43;;;5.80;81.20;;;;;;5048458;28;20047;-65
2022/01/28 00:42:02;;;;;;;39.92;5.53;;;5.70;81.30;;;;;;5048054;28;20102;-65
2022/01/28 00:44:28;;;;;;;34.42;4.82;;;5.80;81.70;;;;;;5048171;28;20060;-65
2022/01/28 00:46:54;;;;;;;29.17;4.28;;;5.70;82.50;;;;;;5048963;28;20120;-65
2022/01/28 00:49:20;;;;;;;20.20;4.65;;;5.90;82.50;;;;;;5048209;28;20045;-65
2022/01/28 00:51:46;;;;;;;28.00;4.72;;;5.90;81.90;;;;;;5048323;28;20041;-65
2022/01/28 00:54:11;;;;;;;30.90;6.07;;;5.80;81.10;;;;;;5045702;28;20055;-65
2022/01/28 00:56:37;;;;;;;14.70;4.75;;;5.70;81.10;;;;;;5048875;28;20145;-65
2022/01/28 00:59:03;;;;;;;21.00;4.15;;;5.70;80.40;;;;;;5029712;28;20484;-65
2022/01/28 01:01:29;;;;;;;19.27;2.85;;;5.70;80.30;;;;;;5045806;28;20053;-65
2022/01/28 01:04:00;;;;;;;20.75;3.03;;;5.60;80.50;;;;;;5047978;28;20461;-64
2022/01/28 01:06:27;;;;;;;20.35;4.95;;;5.60;80.50;;;;;;5047656;28;20124;-65
2022/01/28 01:08:53;;;;;;;29.95;4.97;;;5.60;79.70;;;;;;5048081;28;20045;-65
2022/01/28 01:11:21;;;;;;;16.65;3.65;;;5.60;79.40;;;;;;5048527;28;20056;-65
2022/01/28 01:13:49;;;;;;;20.52;2.92;;;5.50;79.40;;;;;;5030382;28;20053;-65
2022/01/28 01:16:18;;;;;;;18.45;3.63;;;5.60;79.00;;;;;;5041388;28;20456;-65
2022/01/28 01:21:20;;;;;;;21.42;3.50;;;5.30;79.20;;;;;;5039209;28;20045;-65
2022/01/28 01:23:54;;;;;;;21.85;3.72;;;5.30;79.50;;;;;;5036347;28;20114;-65
2022/01/28 01:26:29;;;;;;;19.23;3.22;;;5.20;79.90;;;;;;5045823;28;20124;-65
2022/01/28 01:28:55;;;;;;;21.48;3.70;;;5.20;80.50;;;;;;5040553;28;20045;-65
2022/01/28 01:31:20;;;;;;;24.52;5.60;;;5.20;80.80;;;;;;5048652;28;20103;-65
2022/01/28 01:33:57;;;;;;;23.48;4.90;;;5.30;80.90;;;;;;5048740;28;20410;-65
2022/01/28 01:36:23;;;;;;;19.52;4.57;;;5.40;81.10;;;;;;5048173;28;20049;-64
2022/01/28 01:38:49;;;;;;;19.00;4.07;;;5.50;80.50;;;;;;5047116;28;20045;-65
2022/01/28 01:41:24;;;;;;;15.25;2.20;;;5.50;79.90;;;;;;5043199;28;20098;-65
2022/01/28 01:44:00;;;;;;;6.75;1.60;;;5.60;79.30;;;;;;5047807;28;20087;-65
2022/01/28 01:54:20;;;;;;;35.55;3.75;;;5.40;80.80;;;;;;5049373;28;20120;-65
2022/01/28 01:56:47;;;;;;;19.10;4.15;;;5.30;81.60;;;;;;5051741;28;20129;-65
2022/01/28 01:59:13;;;;;;;22.83;4.00;;;5.30;82.20;;;;;;5041387;28;20461;-64
2022/01/28 02:01:39;;;;;;;25.42;4.57;;;5.30;82.30;;;;;;5051436;28;20136;-65
2022/01/28 02:04:05;;;;;;;21.08;5.28;;;5.20;82.30;;;;;;5050970;28;20132;-64
2022/01/28 02:06:31;;;;;;;17.23;3.53;;;5.30;82.40;;;;;;5050805;28;20032;-65
2022/01/28 02:08:57;;;;;;;26.80;4.10;;;5.30;82.10;;;;;;5049280;28;20127;-65
2022/01/28 02:11:22;;;;;;;24.70;4.32;;;5.20;82.20;;;;;;5051742;28;20041;-65
2022/01/28 02:13:51;;;;;;;20.98;5.20;;;5.40;81.40;;;;;;5042754;28;20479;-65
2022/01/28 02:16:17;;;;;;;24.70;5.05;;;5.40;80.70;;;;;;5049506;28;20056;-65
2022/01/28 02:18:43;;;;;;;28.50;4.13;;;5.40;80.60;;;;;;5051134;28;20095;-65
2022/01/28 02:21:11;;;;;;;34.47;4.45;;;5.60;80.90;;;;;;5050416;28;20044;-65
2022/01/28 02:23:38;;;;;;;21.15;4.72;;;5.60;80.80;;;;;;5045103;28;20087;-64
2022/01/28 02:26:05;;;;;;;18.42;4.55;;;5.60;81.00;;;;;;5049938;28;20494;-65
2022/01/28 02:28:35;;;;;;;24.83;3.83;;;5.60;80.80;;;;;;5030878;28;20053;-64
2022/01/28 02:31:02;;;;;;;32.20;6.05;;;5.50;81.40;;;;;;5061477;28;20417;-64
2022/01/28 02:33:28;;;;;;;28.98;4.40;;;5.60;82.00;;;;;;5050943;28;20044;-65
2022/01/28 02:35:55;;;;;;;33.78;6.00;;;5.70;82.70;;;;;;5050910;28;20037;-65
2022/01/28 02:38:22;;;;;;;20.65;3.85;;;5.70;83.20;;;;;;5050936;28;20183;-65
2022/01/28 02:40:58;;;;;;;29.80;5.63;;;5.70;83.40;;;;;;5050929;28;20480;-65
2022/01/28 02:46:03;;;;;;;23.92;3.15;;;5.50;83.20;;;;;;5046224;28;20623;-65
2022/01/28 02:48:31;;;;;;;20.67;5.20;;;5.50;82.80;;;;;;5031165;28;20037;-65
2022/01/28 02:53:38;;;;;;;20.83;4.53;;;5.30;82.30;;;;;;5045107;28;20136;-65
2022/01/28 02:56:13;;;;;;;31.20;5.43;;;5.30;82.60;;;;;;5049815;28;20049;-65
2022/01/28 02:58:39;;;;;;;24.15;5.15;;;5.30;82.40;;;;;;5050323;28;20037;-64
2022/01/28 03:01:05;;;;;;;28.98;5.05;;;5.40;82.60;;;;;;5041253;28;20498;-65
2022/01/28 03:03:31;;;;;;;15.75;3.78;;;5.50;82.60;;;;;;5051196;28;20041;-65
2022/01/28 03:05:56;;;;;;;20.75;3.35;;;5.50;82.50;;;;;;5047164;28;20458;-64
2022/01/28 03:08:26;;;;;;;25.92;5.63;;;5.50;82.90;;;;;;5031123;28;20041;-64
2022/01/28 03:16:06;;;;;;;21.02;4.30;;;5.60;83.40;;;;;;5048643;28;20095;-64
2022/01/28 03:18:41;;;;;;;31.83;5.53;;;5.60;83.70;;;;;;5031009;28;20076;-65
2022/01/28 03:21:19;;;;;;;25.40;3.95;;;5.60;84.00;;;;;;5048856;28;20134;-65
2022/01/28 03:23:45;;;;;;;28.42;5.90;;;5.60;83.80;;;;;;5049196;28;20047;-65
2022/01/28 03:26:11;;;;;;;27.73;5.78;;;5.70;83.30;;;;;;5049377;28;20418;-64
2022/01/28 03:28:36;;;;;;;21.80;3.92;;;5.80;82.80;;;;;;5050708;28;20041;-65
2022/01/28 03:31:02;;;;;;;26.92;4.65;;;5.70;82.10;;;;;;5036423;28;20378;-64
2022/01/28 03:33:27;;;;;;;33.17;4.80;;;5.70;81.70;;;;;;5049834;28;20064;-65
2022/01/28 03:35:53;;;;;;;25.58;5.32;;;5.70;81.20;;;;;;5048694;28;20037;-65
2022/01/28 03:38:19;;;;;;;22.23;4.43;;;5.70;81.40;;;;;;5049627;28;20517;-65
2022/01/28 03:40:46;;;;;;;24.30;3.95;;;5.60;81.60;;;;;;5044485;28;20060;-65
2022/01/28 03:43:12;;;;;;;22.75;4.82;;;5.50;81.60;;;;;;5050289;28;20053;-65
2022/01/28 03:45:38;;;;;;;29.30;4.97;;;5.40;81.60;;;;;;5031358;28;20153;-65
2022/01/28 03:48:03;;;;;;;29.92;5.78;;;5.40;82.00;;;;;;5048207;28;20060;-65
2022/01/28 03:50:32;;;;;;;24.17;3.85;;;5.40;81.90;;;;;;5049269;28;20044;-64
2022/01/28 03:52:59;;;;;;;38.25;7.15;;;5.30;81.80;;;;;;5045018;28;20106;-65
2022/01/28 03:55:24;;;;;;;20.40;3.90;;;5.20;81.40;;;;;;5049619;28;20041;-65
2022/01/28 03:57:50;;;;;;;24.73;3.90;;;5.40;81.40;;;;;;5023728;28;20127;-65
2022/01/28 04:00:16;;;;;;;21.17;4.07;;;5.40;81.00;;;;;;5050052;28;20077;-65
2022/01/28 04:02:44;;;;;;;17.25;3.33;;;5.50;81.00;;;;;;5049148;28;20303;-65
2022/01/28 04:13:25;;;;;;;23.30;3.65;;;5.40;80.40;;;;;;5049472;28;20041;-64
2022/01/28 04:16:17;;;;;;;30.10;4.15;;;5.30;80.20;;;;;;5046220;28;20104;-65
2022/01/28 04:18:39;;;;;;;24.65;4.78;;;5.30;80.30;;;;;;5048544;28;20099;-65
2022/01/28 04:21:05;;;;;;;27.25;3.90;;;5.30;80.20;;;;;;5049294;28;20460;-65
2022/01/28 04:23:30;;;;;;;25.75;5.05;;;5.20;80.40;;;;;;5048965;28;20421;-65
2022/01/28 04:25:56;;;;;;;23.50;3.58;;;5.10;80.10;;;;;;5049375;28;20489;-65
2022/01/28 04:28:22;;;;;;;18.48;3.83;;;5.10;79.70;;;;;;5042624;28;20037;-64
2022/01/28 04:30:47;;;;;;;22.83;4.65;;;5.20;79.80;;;;;;5048285;28;20455;-65
2022/01/28 04:33:13;;;;;;;22.33;3.92;;;5.20;79.70;;;;;;5048686;28;20056;-65
2022/01/28 04:35:39;;;;;;;24.40;3.85;;;5.20;79.40;;;;;;5048279;28;20433;-65
2022/01/28 04:38:58;;;;;;;31.33;5.70;;;5.10;79.60;;;;;;5047567;28;20045;-65
2022/01/28 04:43:47;;;;;;;21.42;3.88;;;5.10;79.70;;;;;;5047667;28;20174;-65
2022/01/28 04:46:29;;;;;;;28.42;4.68;;;5.10;79.70;;;;;;5047589;28;20536;-65
2022/01/28 04:49:06;;;;;;;30.70;6.40;;;5.20;79.70;;;;;;5046533;28;20124;-65
2022/01/28 04:52:12;;;;;;;26.67;5.93;;;5.20;79.60;;;;;;5048708;28;20362;-64
2022/01/28 04:57:38;;;;;;;21.75;4.22;;;5.20;79.50;;;;;;5035885;28;20087;-65
2022/01/28 05:00:20;;;;;;;21.20;3.90;;;5.20;79.50;;;;;;5048366;28;20088;-65
2022/01/28 05:10:54;;;;;;;31.50;5.95;;;5.40;79.10;;;;;;5049046;28;20048;-65
2022/01/28 05:24:08;;;;;;;26.77;7.05;;;5.50;79.50;;;;;;5048292;28;20048;-64
2022/01/28 05:28:58;;;;;;;33.97;5.07;;;5.50;79.60;;;;;;5049267;28;20303;-64
2022/01/28 05:31:23;;;;;;;35.22;5.35;;;5.50;79.70;;;;;;5052026;28;20497;-65
2022/01/28 05:33:49;;;;;;;22.13;4.13;;;5.40;79.30;;;;;;5050678;28;20481;-63
2022/01/28 05:36:15;;;;;;;35.63;5.47;;;5.40;79.10;;;;;;5052817;28;20045;-65
2022/01/28 05:38:41;;;;;;;31.90;4.07;;;5.50;79.00;;;;;;5051284;28;20049;-65
2022/01/28 05:41:07;;;;;;;34.80;6.90;;;5.40;78.80;;;;;;5050944;28;20052;-64
2022/01/28 05:43:33;;;;;;;29.05;5.13;;;5.40;78.60;;;;;;5051978;28;20045;-65
2022/01/28 05:45:58;;;;;;;25.23;5.72;;;5.30;78.20;;;;;;5052372;28;20501;-64
2022/01/28 05:48:24;;;;;;;27.75;3.78;;;5.30;77.80;;;;;;5052248;28;20041;-64
2022/01/28 05:50:50;;;;;;;29.83;4.75;;;5.30;78.30;;;;;;5052299;28;20094;-64
2022/01/28 05:53:16;;;;;;;24.33;3.95;;;5.30;77.60;;;;;;5051430;28;20048;-64
2022/01/28 05:55:41;;;;;;;27.33;4.15;;;5.30;77.10;;;;;;5052725;28;20056;-65
2022/01/28 05:58:07;;;;;;;20.38;3.53;;;5.30;76.40;;;;;;5063429;28;20052;-65
2022/01/28 06:00:33;;;;;;;21.70;4.25;;;5.30;76.60;;;;;;5051483;28;20136;-65
2022/01/28 06:02:58;;;;;;;35.88;5.38;;;5.30;76.70;;;;;;5051823;28;20041;-65
2022/01/28 06:05:30;;;;;;;23.80;3.85;;;5.20;75.40;;;;;;5052181;28;20147;-65
2022/01/28 06:08:00;;;;;;;34.45;4.45;;;5.20;76.10;;;;;;5051738;28;20052;-65
2022/01/28 06:10:26;;;;;;;22.00;4.18;;;5.20;76.30;;;;;;5049995;28;20552;-65
2022/01/28 06:12:51;;;;;;;29.27;5.00;;;5.20;76.30;;;;;;5051571;28;20090;-65
2022/01/28 06:15:17;;;;;;;21.13;3.75;;;5.20;75.80;;;;;;5050971;28;20032;-64
2022/01/28 06:17:43;;;;;;;27.42;3.85;;;5.10;75.60;;;;;;5050449;28;20452;-65
2022/01/28 06:20:12;;;;;;;27.15;4.38;;;5.10;76.00;;;;;;5051217;28;20072;-64
2022/01/28 06:22:42;;;;;;;25.83;4.43;;;5.00;76.50;;;;;;5032373;28;20041;-64
2022/01/28 06:25:09;;;;;;;21.77;3.15;;;5.00;76.70;;;;;;5041554;28;20049;-64
2022/01/28 06:27:36;;;;;;;27.40;3.55;;;5.00;76.90;;;;;;5051597;28;20056;-64
2022/01/28 06:30:04;;;;;;;30.52;6.03;;;4.90;76.40;;;;;;5050104;28;20359;-64
2022/01/28 06:32:31;;;;;;;23.83;3.35;;;5.00;76.20;;;;;;5051844;28;20044;-64
2022/01/28 06:34:56;;;;;;;26.63;4.22;;;4.90;76.10;;;;;;5051688;28;20044;-64
2022/01/28 06:37:22;;;;;;;25.00;3.42;;;4.90;76.20;;;;;;5043788;28;20067;-64
2022/01/28 06:39:48;;;;;;;24.30;4.03;;;4.90;76.40;;;;;;5050716;28;20142;-65
2022/01/28 06:42:14;;;;;;;23.13;3.28;;;4.90;76.30;;;;;;5046795;28;20133;-65
2022/01/28 06:44:39;;;;;;;16.58;3.33;;;4.90;76.70;;;;;;5045120;28;20037;-65
2022/01/28 06:47:10;;;;;;;28.33;4.13;;;4.70;76.10;;;;;;5049772;28;20048;-65
2022/01/28 06:49:37;;;;;;;20.85;3.58;;;4.80;76.30;;;;;;5033523;28;20145;-65
2022/01/28 06:52:04;;;;;;;22.63;3.85;;;4.70;76.40;;;;;;5050787;28;20088;-65
2022/01/28 06:54:30;;;;;;;19.48;3.63;;;4.70;77.00;;;;;;5051291;28;20044;-65
2022/01/28 06:56:55;;;;;;;22.40;4.10;;;4.60;76.70;;;;;;5050749;28;20603;-65
2022/01/28 06:59:21;;;;;;;35.53;3.72;;;4.50;77.10;;;;;;5050086;28;20531;-65
2022/01/28 07:01:47;;;;;;;25.80;4.60;;;4.50;77.30;;;;;;5050719;28;20057;-65
2022/01/28 07:04:14;;;;;;;23.52;3.42;;;4.50;77.50;;;;;;5051054;28;20087;-65
2022/01/28 07:06:40;;;;;;;24.05;4.85;;;4.40;77.50;;;;;;5050808;28;20679;-65
2022/01/28 07:09:07;;;;;;;18.95;3.22;;;4.30;77.80;;;;;;5046887;28;20126;-65
2022/01/28 07:11:33;;;;;;;26.05;3.95;;;4.30;77.90;;;;;;5050288;28;20045;-66
2022/01/28 07:13:59;;;;;;;31.38;5.60;;;4.30;78.10;;;;;;5050273;28;20043;-65
2022/01/28 07:16:25;;;;;;;19.83;3.55;;;4.30;78.30;;;;;;5051056;28;20120;-65
2022/01/28 07:18:50;;;;;;;31.60;5.93;;;4.20;78.40;;;;;;5050717;28;20826;-65
2022/01/28 07:21:16;;;;;;;23.02;4.20;;;4.20;78.70;;;;;;5049377;28;20045;-67
2022/01/28 07:23:42;;;;;;;23.35;2.80;;;4.20;78.80;;;;;;5049771;28;20055;-67
2022/01/28 07:26:07;;;;;;;23.58;3.58;;;4.20;78.90;;;;;;5049885;28;20135;-67
2022/01/28 07:28:35;;;;;;;32.60;4.72;;;4.20;79.00;;;;;;5048592;28;20049;-67
2022/01/28 07:31:00;;;;;;;19.58;5.68;;;4.20;79.20;;;;;;5050201;28;20052;-67
2022/01/28 07:33:26;;;;;;;21.33;4.28;;;4.10;79.30;;;;;;5049815;28;20040;-67
2022/01/28 07:35:52;;;;;;;26.15;3.40;;;4.10;79.40;;;;;;5050856;28;20041;-67
2022/01/28 07:38:17;;;;;;;24.17;4.00;;;4.10;79.60;;;;;;5048815;28;20052;-69
2022/01/28 07:40:43;;;;;;;27.95;4.70;;;4.10;79.70;;;;;;5049585;28;20133;-69
2022/01/28 07:43:09;;;;;;;26.40;3.70;;;4.10;79.80;;;;;;5049806;28;20044;-70
2022/01/28 07:45:35;;;;;;;20.95;4.63;;;4.10;79.70;;;;;;5064959;28;20045;-70
2022/01/28 07:48:00;;;;;;;25.67;4.28;;;4.10;79.80;;;;;;5050085;28;20482;-69
2022/01/28 07:50:26;;;;;;;26.33;3.80;;;4.10;80.00;;;;;;5049269;28;20041;-69
2022/01/28 07:52:52;;;;;;;27.27;3.83;;;4.20;80.10;;;;;;5046313;28;20037;-69
2022/01/28 07:55:17;;;;;;;33.28;4.32;;;4.20;80.20;;;;;;5051598;28;20093;-69
2022/01/28 07:57:43;;;;;;;27.38;3.60;;;4.30;80.20;;;;;;5050112;28;20057;-69
2022/01/28 08:00:11;;;;;;;21.00;3.88;;;4.40;80.30;;;;;;5031296;28;20045;-69
2022/01/28 08:02:37;;;;;;;24.35;3.70;;;4.40;80.20;;;;;;5048884;28;20049;-69
2022/01/28 08:05:03;;;;;;;20.10;3.00;;;4.40;80.10;;;;;;5050262;28;20057;-69
2022/01/28 08:07:28;;;;;;;21.88;3.17;;;4.50;80.20;;;;;;5049167;28;20041;-69
2022/01/28 08:09:54;;;;;;;23.90;3.83;;;4.60;80.30;;;;;;5047266;28;20052;-69
2022/01/28 08:12:21;;;;;;;16.50;3.90;;;4.60;80.40;;;;;;5050548;28;20048;-70
2022/01/28 08:14:47;;;;;;;21.27;3.50;;;4.60;80.30;;;;;;5048702;28;20113;-70
2022/01/28 08:17:13;;;;;;;26.65;5.20;;;4.60;80.40;;;;;;5049728;28;20053;-70
2022/01/28 08:19:38;;;;;;;22.13;4.93;;;4.60;80.50;;;;;;5046842;28;21136;-70
2022/01/28 08:22:04;;;;;;;25.65;3.65;;;4.60;80.40;;;;;;5047826;28;20041;-69
2022/01/28 08:24:30;;;;;;;21.35;3.97;;;4.70;80.50;;;;;;5048398;28;20363;-70
2022/01/28 08:26:56;;;;;;;23.73;4.30;;;4.70;80.40;;;;;;5047897;28;20083;-70
2022/01/28 08:29:22;;;;;;;28.77;6.00;;;4.70;80.20;;;;;;5048866;28;20083;-70
2022/01/28 08:31:48;;;;;;;27.92;5.15;;;4.60;80.20;;;;;;5049388;28;20059;-70
2022/01/28 08:34:14;;;;;;;22.05;3.88;;;4.70;80.40;;;;;;5031361;28;20041;-70
2022/01/28 08:36:40;;;;;;;24.00;4.53;;;4.60;80.20;;;;;;5047337;28;20045;-70
2022/01/28 08:39:06;;;;;;;21.95;4.85;;;4.60;80.30;;;;;;5048553;28;20150;-70
2022/01/28 08:41:35;;;;;;;29.48;6.75;;;4.60;80.40;;;;;;5048737;28;20633;-69
2022/01/28 08:44:01;;;;;;;18.85;3.25;;;4.50;80.40;;;;;;5048102;28;20106;-69
2022/01/28 08:46:26;;;;;;;24.85;4.57;;;4.60;80.70;;;;;;5049304;28;20053;-69
2022/01/28 08:48:52;;;;;;;28.20;5.47;;;4.60;80.80;;;;;;5048857;28;20041;-69
2022/01/28 08:51:18;;;;;;;28.23;4.10;;;4.50;81.00;;;;;;5047294;28;20033;-70
2022/01/28 08:53:43;;;;;;;21.98;4.47;;;4.60;81.10;;;;;;5045479;28;20056;-69
2022/01/28 08:56:09;;;;;;;22.42;5.60;;;4.60;81.20;;;;;;5047426;28;20103;-69
2022/01/28 08:58:35;;;;;;;23.42;3.97;;;4.60;81.40;;;;;;5048514;28;20045;-70
2022/01/28 09:01:01;;;;;;;27.27;4.03;;;4.70;81.40;;;;;;5048899;28;20053;-70
2022/01/28 09:03:27;;;;;;;29.88;4.13;;;4.70;81.50;;;;;;5048517;28;20514;-70
2022/01/28 09:05:53;;;;;;;25.27;4.53;;;4.70;81.50;;;;;;5047320;28;20041;-72
2022/01/28 09:08:19;;;;;;;27.92;6.63;;;4.70;81.60;;;;;;5045901;28;20429;-71
2022/01/28 09:10:56;;;;;;;32.20;5.00;;;4.70;81.70;;;;;;5045865;28;20033;-71
2022/01/28 09:13:24;;;;;;;21.27;3.83;;;4.70;81.60;;;;;;5046752;28;20124;-69
2022/01/28 09:15:52;;;;;;;30.70;5.07;;;4.90;81.70;;;;;;5047228;28;20110;-71
2022/01/28 09:18:19;;;;;;;31.58;7.72;;;5.00;81.70;;;;;;5048339;28;20067;-70
2022/01/28 09:20:45;;;;;;;28.45;3.90;;;5.00;81.50;;;;;;5047286;28;20041;-70
2022/01/28 09:23:11;;;;;;;18.02;3.72;;;5.00;81.50;;;;;;5048605;28;20045;-69
2022/01/28 09:25:37;;;;;;;24.92;3.78;;;5.00;81.50;;;;;;5047375;28;20489;-69
2022/01/28 09:28:03;;;;;;;28.45;5.03;;;5.10;81.70;;;;;;5047508;28;20052;-71
2022/01/28 09:30:30;;;;;;;37.88;5.97;;;5.40;83.00;;;;;;5046633;28;20859;-71
2022/01/28 09:32:58;;;;;;;28.88;4.13;;;5.50;81.50;;;;;;5048099;28;20048;-70
2022/01/28 09:35:24;;;;;;;29.25;4.95;;;5.50;81.20;;;;;;5048114;28;20485;-70
2022/01/28 09:37:51;;;;;;;21.45;4.88;;;5.40;81.10;;;;;;5046044;28;20047;-71
2022/01/28 09:40:17;;;;;;;28.27;4.30;;;5.30;81.30;;;;;;5048397;28;20084;-69
2022/01/28 09:42:45;;;;;;;30.50;4.57;;;5.30;81.50;;;;;;5045840;28;20084;-71
2022/01/28 09:45:16;;;;;;;31.38;5.18;;;5.30;81.40;;;;;;5047348;28;20052;-71
2022/01/28 09:47:42;;;;;;;15.75;3.47;;;5.30;81.50;;;;;;5047736;28;20119;-64
2022/01/28 09:50:08;;;;;;;23.35;5.47;;;5.30;81.60;;;;;;5045196;28;20517;-69
2022/01/28 09:52:35;;;;;;;23.33;3.90;;;5.40;81.70;;;;;;5048049;28;20379;-69
2022/01/28 09:55:01;;;;;;;25.20;3.80;;;5.40;81.60;;;;;;5048001;28;20033;-69
2022/01/28 09:57:27;;;;;;;22.17;3.97;;;5.50;81.50;;;;;;5048335;28;20100;-68
2022/01/28 09:59:52;;;;;;;33.75;5.63;;;5.50;81.00;;;;;;5047404;28;20045;-69
2022/01/28 10:02:19;;;;;;;18.58;3.30;;;5.60;81.20;;;;;;5037877;28;20052;-69
2022/01/28 10:04:46;;;;;;;22.45;3.50;;;5.70;81.00;;;;;;5048177;28;20091;-69
2022/01/28 10:07:15;;;;;;;21.77;6.43;;;5.70;80.90;;;;;;5047058;28;20092;-69
2022/01/28 10:09:58;;;;;;;33.88;4.53;;;5.80;81.10;;;;;;5047664;28;20049;-69
2022/01/28 10:12:40;;;;;;;19.52;3.83;;;5.90;80.90;;;;;;5038629;28;20560;-69
2022/01/28 10:15:17;;;;;;;18.67;3.65;;;5.90;80.60;;;;;;5048562;28;20454;-69
2022/01/28 10:17:53;;;;;;;23.17;4.68;;;5.90;80.40;;;;;;5051664;28;20052;-69
2022/01/28 10:20:22;;;;;;;24.63;3.83;;;6.00;80.60;;;;;;5050709;28;20115;-69
2022/01/28 10:22:51;;;;;;;25.13;4.65;;;6.00;80.60;;;;;;5051087;28;20052;-69
2022/01/28 10:25:27;;;;;;;32.50;6.93;;;6.00;80.50;;;;;;5049924;28;20057;-72
2022/01/28 10:28:15;;;;;;;25.00;3.83;;;6.10;80.70;;;;;;5047057;28;20041;-72
2022/01/28 10:30:43;;;;;;;27.88;4.28;;;6.10;80.70;;;;;;5043208;28;20037;-72
2022/01/28 10:33:16;;;;;;;20.25;5.22;;;6.20;80.50;;;;;;5050302;28;20630;-72
2022/01/28 10:35:56;;;;;;;19.65;3.95;;;6.30;80.20;;;;;;5050111;28;20094;-72
2022/01/28 10:38:28;;;;;;;21.83;3.63;;;6.40;80.30;;;;;;5019054;28;20052;-72
2022/01/28 10:41:15;;;;;;;28.48;5.15;;;6.40;79.60;;;;;;5047185;28;20052;-71
2022/01/28 10:43:46;;;;;;;20.70;3.88;;;6.50;79.80;;;;;;5049825;28;20064;-70
2022/01/28 10:46:13;;;;;;;20.08;3.58;;;6.60;79.90;;;;;;5047654;28;20439;-70
2022/01/28 10:48:57;;;;;;;27.10;3.30;;;6.60;78.60;;;;;;5032100;28;20117;-74
2022/01/28 10:51:38;;;;;;;23.00;4.32;;;6.70;78.90;;;;;;5051655;28;20107;-74
2022/01/28 10:54:07;;;;;;;21.67;3.45;;;6.70;78.90;;;;;;5051402;28;20110;-74
2022/01/28 10:57:07;;;;;;;27.77;4.32;;;6.70;78.90;;;;;;5051990;28;20056;-72
2022/01/28 10:59:36;;;;;;;23.73;4.40;;;6.80;78.30;;;;;;5026678;28;20107;-74
2022/01/28 11:02:06;;;;;;;26.92;4.68;;;6.80;78.70;;;;;;5049048;28;20114;-73
2022/01/28 11:04:33;;;;;;;29.10;4.22;;;6.90;78.50;;;;;;5034144;28;20107;-74
2022/01/28 11:07:00;;;;;;;21.92;3.38;;;7.00;78.90;;;;;;5051484;28;20750;-73
2022/01/28 11:09:26;;;;;;;21.52;3.70;;;7.00;79.00;;;;;;5051322;28;20033;-74
2022/01/28 11:11:53;;;;;;;24.70;3.53;;;7.00;77.70;;;;;;5049787;28;20037;-73
2022/01/28 11:14:19;;;;;;;23.83;4.32;;;7.30;77.90;;;;;;5051291;28;20053;-73
2022/01/28 11:16:45;;;;;;;27.00;4.25;;;7.40;75.50;;;;;;5052204;28;20053;-73
2022/01/28 11:19:15;;;;;;;17.13;3.22;;;7.40;74.80;;;;;;5052037;28;20059;-73
2022/01/28 11:21:51;;;;;;;20.92;3.45;;;7.40;74.60;;;;;;5052138;28;20056;-73
2022/01/28 11:24:42;;;;;;;16.08;3.50;;;7.30;74.50;;;;;;5048407;28;20381;-72
2022/01/28 11:27:13;;;;;;;26.42;4.50;;;7.40;75.30;;;;;;5046706;28;20551;-73
2022/01/28 11:29:39;;;;;;;23.45;4.03;;;7.30;75.20;;;;;;5031630;28;20066;-73
2022/01/28 11:32:17;;;;;;;23.58;4.00;;;7.20;74.80;;;;;;5042109;28;20060;-73
2022/01/28 11:34:58;;;;;;;18.83;2.88;;;7.30;76.50;;;;;;5049577;28;20397;-69
2022/01/28 11:37:27;;;;;;;26.40;3.72;;;7.40;76.00;;;;;;5049272;28;20260;-69
2022/01/28 11:39:52;;;;;;;22.30;3.40;;;7.40;74.90;;;;;;5049872;28;20036;-69
2022/01/28 11:42:25;;;;;;;22.02;4.43;;;7.30;75.30;;;;;;5049191;28;20140;-69
2022/01/28 11:44:51;;;;;;;18.00;3.85;;;7.30;75.30;;;;;;5049006;28;20049;-69
2022/01/28 11:47:24;;;;;;;21.75;4.75;;;7.20;75.10;;;;;;5049647;28;20048;-69
2022/01/28 11:49:56;;;;;;;27.13;4.18;;;7.30;75.40;;;;;;5032417;28;20049;-69
2022/01/28 11:52:27;;;;;;;19.52;3.83;;;7.30;75.10;;;;;;5049321;28;20464;-69
2022/01/28 11:54:54;;;;;;;30.17;5.13;;;7.30;74.40;;;;;;5050223;28;20048;-70
2022/01/28 11:57:21;;;;;;;19.88;3.92;;;7.30;75.40;;;;;;5050291;28;20048;-69
2022/01/28 11:59:51;;;;;;;26.48;4.20;;;7.30;75.90;;;;;;5049005;28;20048;-69
2022/01/28 12:02:19;;;;;;;22.65;3.40;;;7.30;76.10;;;;;;5049573;28;20053;-70
2022/01/28 12:04:45;;;;;;;37.38;5.10;;;7.40;75.50;;;;;;5048980;28;20040;-70
2022/01/28 12:07:18;;;;;;;23.33;3.97;;;7.40;75.20;;;;;;5048605;28;20057;-70
2022/01/28 12:09:46;;;;;;;28.20;4.40;;;7.30;74.70;;;;;;5050351;28;20124;-70
2022/01/28 12:12:18;;;;;;;26.17;3.33;;;7.40;75.60;;;;;;5048912;28;20128;-70
2022/01/28 12:14:50;;;;;;;26.42;5.25;;;7.40;75.70;;;;;;5049880;28;20090;-70
2022/01/28 12:17:31;;;;;;;;;;;7.40;75.30;;;;;;5049125;28;20060;-70
2022/01/28 12:20:19;;;;;;;27.58;4.45;;;7.30;75.10;;;;;;5049932;28;19924;-70
2022/01/28 12:23:00;;;;;;;27.77;4.22;;;7.40;74.90;;;;;;5049544;28;20041;-70
2022/01/28 12:25:56;;;;;;;21.58;3.85;;;7.50;75.10;;;;;;5048806;28;20045;-69
2022/01/28 12:28:31;;;;;;;30.27;3.72;;;7.50;74.80;;;;;;5030737;28;20096;-69
2022/01/28 12:31:03;;;;;;;22.42;3.78;;;7.60;74.80;;;;;;5048348;28;20037;-70
2022/01/28 12:33:32;;;;;;;;;;;7.60;75.30;;;;;;5048499;28;20049;-70
2022/01/28 12:36:00;;;;;;;21.17;3.80;;;7.70;75.40;;;;;;5048250;28;19928;-70
2022/01/28 12:38:31;;;;;;;23.70;4.40;;;7.70;75.40;;;;;;5031267;28;20055;-70
2022/01/28 12:41:07;;;;;;;16.83;4.28;;;7.70;75.20;;;;;;5048079;28;20115;-70
2022/01/28 12:43:33;;;;;;;23.13;4.53;;;7.70;75.00;;;;;;5049791;28;20142;-70
2022/01/28 12:46:06;;;;;;;30.45;4.78;;;7.70;75.10;;;;;;5049431;28;20098;-69
2022/01/28 12:48:32;;;;;;;14.32;3.17;;;7.70;75.80;;;;;;5049455;28;20094;-69
2022/01/28 12:51:00;;;;;;;31.38;7.10;;;7.70;75.60;;;;;;5049191;28;20048;-70
2022/01/28 12:53:30;;;;;;;16.58;3.47;;;7.70;76.20;;;;;;5048815;28;20041;-69
2022/01/28 12:56:01;;;;;;;22.70;4.97;;;7.70;75.70;;;;;;5049344;28;20044;-70
2022/01/28 12:58:59;;;;;;;20.38;3.47;;;7.70;74.60;;;;;;5049159;28;20468;-70
2022/01/28 13:01:25;;;;;;;23.73;3.53;;;7.70;75.00;;;;;;5048494;28;20076;-69
2022/01/28 13:04:03;;;;;;;14.05;2.47;;;7.70;75.00;;;;;;5049150;28;20567;-70
2022/01/28 13:09:09;;;;;;;18.77;3.10;;;7.70;75.00;;;;;;5049227;28;20405;-69
2022/01/28 13:11:43;;;;;;;17.98;2.85;;;7.60;73.40;;;;;;5047879;28;20498;-69
2022/01/28 13:14:11;;;;;;;18.73;2.50;;;7.60;74.20;;;;;;5049165;28;20041;-70
2022/01/28 13:16:39;;;;;;;12.90;2.42;;;7.60;74.70;;;;;;5048339;28;20051;-70
2022/01/28 13:19:07;;;;;;;11.45;2.72;;;7.60;73.70;;;;;;5047764;28;20083;-69
2022/01/28 13:21:33;;;;;;;17.67;1.85;;;7.60;73.50;;;;;;5047876;28;20551;-69
2022/01/28 13:24:19;;;;;;;26.48;4.25;;;7.70;74.20;;;;;;5043740;28;20426;-69
2022/01/28 13:27:01;;;;;;;17.67;2.85;;;7.90;74.50;;;;;;5045033;28;20052;-68
2022/01/28 13:29:37;;;;;;;16.70;3.13;;;7.90;74.20;;;;;;5048561;28;20048;-67
2022/01/28 13:32:12;;;;;;;19.60;2.92;;;7.90;74.10;;;;;;5046286;28;20406;-67
2022/01/28 13:34:51;;;;;;;22.45;3.10;;;7.90;74.30;;;;;;5047126;28;20051;-68
2022/01/28 13:37:41;;;;;;;16.27;3.92;;;7.90;74.60;;;;;;5048070;28;20049;-68
2022/01/28 13:40:19;;;;;;;23.38;3.85;;;7.80;74.60;;;;;;5032542;28;20045;-68
2022/01/28 13:43:10;;;;;;;12.75;2.35;;;7.80;75.30;;;;;;5037608;28;20128;-68
2022/01/28 13:45:50;;;;;;;17.37;2.97;;;7.80;75.20;;;;;;5045578;28;20417;-67
2022/01/28 13:48:36;;;;;;;12.95;3.05;;;7.80;75.40;;;;;;5046763;28;20137;-67
2022/01/28 13:51:06;;;;;;;19.92;3.25;;;7.80;75.60;;;;;;5035109;28;20052;-67
2022/01/28 13:56:30;;;;;;;22.10;2.63;;;7.80;76.10;;;;;;5051536;28;20047;-67
2022/01/28 13:58:56;;;;;;;24.42;2.92;;;7.70;75.80;;;;;;5046664;28;20037;-68
2022/01/28 14:01:26;;;;;;;28.52;4.22;;;7.70;75.90;;;;;;5050290;28;20106;-68
2022/01/28 14:04:00;;;;;;;19.83;4.05;;;7.80;76.20;;;;;;5051037;28;20407;-68
2022/01/28 14:06:36;;;;;;;22.08;2.53;;;7.70;76.60;;;;;;5051814;28;20485;-68
2022/01/28 14:09:14;;;;;;;12.75;2.38;;;7.70;77.20;;;;;;5051792;28;20505;-68
2022/01/28 14:11:51;;;;;;;21.45;2.80;;;7.80;76.90;;;;;;5052284;28;20048;-67
2022/01/28 14:14:47;;;;;;;14.25;2.63;;;7.70;76.70;;;;;;5047350;28;20117;-68
2022/01/28 14:17:14;;;;;;;14.60;2.33;;;7.80;76.50;;;;;;5038308;28;20045;-68
2022/01/28 14:19:41;;;;;;;18.63;2.88;;;7.70;76.70;;;;;;5051279;28;20116;-68
2022/01/28 14:22:08;;;;;;;20.75;3.72;;;7.70;76.70;;;;;;5051258;28;20055;-68
2022/01/28 14:24:36;;;;;;;15.18;2.92;;;7.70;77.10;;;;;;5050521;28;20083;-68